Time;durP1;ratioP1;P1;durP2;ratioP2;P2;SDS_P1;SDS_P2;PMS_P1;PMS_P2;Temp;Humidity;BMP_temperature;BMP_pressure;BME280_temperature;BME280_humidity;BME280_pressure;Samples;Min_cycle;Max_cycle;Signal;HPM_P1;HPM_P2
2021/03/14 00:02:42;;;;;;;2.92;2.20;;;23.20;30.80;;;;;;6236688;28;80816;-66
2021/03/14 00:05:43;;;;;;;3.03;2.13;;;23.20;30.40;;;;;;6241678;28;87394;-67
2021/03/14 00:08:43;;;;;;;3.58;2.20;;;23.20;30.00;;;;;;6245962;28;81347;-66
2021/03/14 00:11:44;;;;;;;2.00;1.70;;;23.20;30.10;;;;;;6246778;28;81482;-66
2021/03/14 00:14:44;;;;;;;4.15;2.20;;;23.20;31.10;;;;;;6233937;28;81366;-66
2021/03/14 00:17:45;;;;;;;2.25;1.80;;;23.20;31.00;;;;;;6238203;28;80406;-65
2021/03/14 00:20:46;;;;;;;2.33;1.70;;;23.20;30.50;;;;;;6236987;28;81337;-65
2021/03/14 00:23:46;;;;;;;2.53;1.55;;;23.10;30.90;;;;;;6241959;27;80368;-65
2021/03/14 00:26:47;;;;;;;2.20;1.63;;;23.20;30.80;;;;;;6234841;27;80547;-65
2021/03/14 00:29:47;;;;;;;3.20;1.75;;;23.20;30.10;;;;;;6238913;28;80825;-65
2021/03/14 00:32:48;;;;;;;4.32;1.80;;;23.20;31.20;;;;;;6246337;28;80772;-65
2021/03/14 00:35:48;;;;;;;2.85;1.58;;;23.10;30.70;;;;;;6241071;28;80747;-65
2021/03/14 00:38:49;;;;;;;2.47;1.58;;;23.20;31.20;;;;;;6235948;28;80464;-65
2021/03/14 00:41:49;;;;;;;2.55;1.63;;;23.20;30.90;;;;;;6234366;27;81653;-65
2021/03/14 00:44:50;;;;;;;1.88;1.42;;;23.10;31.20;;;;;;6235705;28;82790;-65
2021/03/14 00:47:51;;;;;;;2.63;2.05;;;23.10;31.30;;;;;;6247021;28;81327;-65
2021/03/14 00:50:51;;;;;;;2.58;1.50;;;23.10;31.30;;;;;;6225991;28;81996;-65
2021/03/14 00:54:00;;;;;;;2.40;1.55;;;23.10;31.20;;;;;;6237931;28;81391;-65
2021/03/14 00:57:03;;;;;;;1.75;1.40;;;23.10;31.30;;;;;;6223743;28;82722;-65
2021/03/14 01:00:04;;;;;;;1.65;1.40;;;23.10;31.30;;;;;;6244167;28;81429;-65
2021/03/14 01:03:05;;;;;;;1.67;1.40;;;23.10;31.70;;;;;;6189750;28;81577;-65
2021/03/14 01:06:12;;;;;;;1.60;1.38;;;23.10;31.70;;;;;;6235444;27;82158;-66
2021/03/14 01:09:13;;;;;;;1.30;1.20;;;23.10;31.60;;;;;;6222156;28;83198;-65
2021/03/14 01:12:14;;;;;;;2.92;1.70;;;23.10;31.60;;;;;;6227588;28;83072;-65
2021/03/14 01:15:28;;;;;;;2.60;1.55;;;23.10;31.70;;;;;;6221896;28;82946;-63
2021/03/14 01:18:32;;;;;;;1.58;1.30;;;23.10;31.80;;;;;;6247368;28;81402;-64
2021/03/14 01:21:32;;;;;;;1.92;1.42;;;23.10;31.30;;;;;;6243886;27;80642;-63
2021/03/14 01:24:33;;;;;;;1.75;1.30;;;23.10;31.30;;;;;;6242049;28;81490;-63
2021/03/14 01:27:33;;;;;;;1.75;1.30;;;23.00;31.00;;;;;;6237316;28;80163;-63
2021/03/14 01:30:34;;;;;;;1.70;1.40;;;23.10;31.80;;;;;;6240734;28;80908;-63
2021/03/14 01:33:34;;;;;;;2.17;1.30;;;23.10;31.70;;;;;;6237140;28;80829;-63
2021/03/14 01:36:35;;;;;;;1.42;1.30;;;23.10;31.80;;;;;;6236599;27;80563;-63
2021/03/14 01:39:36;;;;;;;2.00;1.50;;;23.10;31.70;;;;;;6236973;27;83136;-63
2021/03/14 01:42:36;;;;;;;1.35;1.20;;;23.00;31.40;;;;;;6242241;28;81576;-64
2021/03/14 01:45:37;;;;;;;1.83;1.05;;;23.10;31.60;;;;;;6230776;28;80092;-66
2021/03/14 01:48:37;;;;;;;1.90;1.38;;;23.10;31.40;;;;;;6241529;27;80907;-66
2021/03/14 01:51:38;;;;;;;2.05;1.35;;;23.10;31.50;;;;;;6238606;28;80763;-66
2021/03/14 01:54:38;;;;;;;1.30;1.20;;;23.10;31.60;;;;;;6245259;28;80691;-66
2021/03/14 01:57:39;;;;;;;2.47;1.48;;;23.10;31.40;;;;;;6240906;28;80718;-66
2021/03/14 02:00:39;;;;;;;1.65;1.23;;;23.10;31.70;;;;;;6240491;28;81110;-66
2021/03/14 02:03:40;;;;;;;2.58;1.40;;;23.00;31.40;;;;;;6231395;28;82125;-68
2021/03/14 02:06:41;;;;;;;1.88;1.25;;;23.10;31.90;;;;;;6232998;28;80910;-68
2021/03/14 02:09:41;;;;;;;2.13;1.40;;;23.10;31.50;;;;;;6234688;27;80582;-66
2021/03/14 02:12:42;;;;;;;2.70;1.30;;;23.10;31.10;;;;;;6234401;28;81381;-65
2021/03/14 02:15:42;;;;;;;1.20;1.10;;;23.10;31.80;;;;;;6238265;27;80611;-65
2021/03/14 02:18:43;;;;;;;2.13;1.50;;;23.10;30.90;;;;;;6233562;28;81681;-65
2021/03/14 02:21:43;;;;;;;1.40;1.13;;;23.10;31.40;;;;;;6234050;28;80595;-66
2021/03/14 02:24:44;;;;;;;1.83;1.30;;;23.10;31.50;;;;;;6217144;27;81217;-67
2021/03/14 02:27:45;;;;;;;1.40;1.20;;;23.10;31.30;;;;;;6237407;28;80489;-66
2021/03/14 02:30:45;;;;;;;1.67;1.23;;;23.10;31.60;;;;;;6238439;28;80692;-65
2021/03/14 02:33:46;;;;;;;2.17;1.45;;;23.10;31.40;;;;;;6239030;28;88000;-67
2021/03/14 02:36:46;;;;;;;1.52;1.40;;;23.10;31.50;;;;;;6232254;28;80697;-67
2021/03/14 02:39:47;;;;;;;1.75;1.40;;;23.10;31.60;;;;;;6236738;28;80665;-68
2021/03/14 02:42:47;;;;;;;1.83;1.40;;;23.00;31.20;;;;;;6233216;28;80834;-67
2021/03/14 02:45:48;;;;;;;1.30;1.20;;;23.00;31.40;;;;;;6216501;28;80569;-67
2021/03/14 02:48:48;;;;;;;1.30;1.20;;;23.00;31.10;;;;;;6243050;27;80661;-66
2021/03/14 02:51:49;;;;;;;1.40;1.30;;;23.00;31.30;;;;;;6248272;28;80262;-63
2021/03/14 02:54:49;;;;;;;1.55;1.10;;;23.00;30.90;;;;;;6232272;27;81845;-65
2021/03/14 02:57:50;;;;;;;1.60;1.10;;;23.00;30.90;;;;;;6243812;28;82796;-65
2021/03/14 03:00:51;;;;;;;1.33;1.10;;;23.00;30.70;;;;;;6236615;28;88134;-65
2021/03/14 03:03:51;;;;;;;1.58;1.27;;;23.00;30.80;;;;;;6233234;28;80288;-66
2021/03/14 03:06:52;;;;;;;1.00;1.00;;;23.00;31.20;;;;;;6241483;28;80298;-66
2021/03/14 03:09:52;;;;;;;1.92;1.27;;;23.00;31.40;;;;;;6239293;28;80422;-66
2021/03/14 03:12:53;;;;;;;1.55;1.10;;;23.10;31.40;;;;;;6244511;28;80593;-67
2021/03/14 03:15:53;;;;;;;1.77;1.00;;;23.10;31.10;;;;;;6246996;27;80470;-67
2021/03/14 03:18:54;;;;;;;1.10;1.00;;;23.00;30.90;;;;;;6246001;27;80831;-66
2021/03/14 03:21:55;;;;;;;1.20;1.10;;;23.00;31.70;;;;;;6209876;27;80917;-68
2021/03/14 03:24:55;;;;;;;1.10;0.93;;;23.00;30.70;;;;;;6228567;28;80660;-68
2021/03/14 03:27:56;;;;;;;1.10;1.00;;;23.00;31.30;;;;;;6242191;28;80388;-68
2021/03/14 03:30:56;;;;;;;1.77;1.35;;;23.00;30.70;;;;;;6238857;28;80802;-68
2021/03/14 03:33:57;;;;;;;1.10;1.00;;;23.00;30.40;;;;;;6247266;28;81417;-67
2021/03/14 03:36:57;;;;;;;1.52;1.08;;;23.00;30.90;;;;;;6240176;28;81464;-67
2021/03/14 03:39:58;;;;;;;0.90;0.90;;;23.00;30.50;;;;;;6240215;27;81381;-67
2021/03/14 03:42:58;;;;;;;1.02;0.93;;;23.00;30.60;;;;;;6235621;28;83982;-67
2021/03/14 03:45:59;;;;;;;0.90;0.90;;;23.00;30.50;;;;;;6237118;27;80323;-67
2021/03/14 03:48:59;;;;;;;1.50;1.20;;;22.90;30.60;;;;;;6233252;27;80715;-67
2021/03/14 03:52:00;;;;;;;1.10;1.00;;;22.90;31.00;;;;;;6236289;28;80532;-68
2021/03/14 03:55:01;;;;;;;1.58;1.30;;;23.00;30.80;;;;;;6238044;28;80871;-67
2021/03/14 03:58:01;;;;;;;1.05;0.98;;;23.00;30.20;;;;;;6222477;27;81833;-67
2021/03/14 04:01:02;;;;;;;1.15;1.05;;;23.00;30.10;;;;;;6240752;28;80712;-67
2021/03/14 04:04:02;;;;;;;0.95;0.88;;;23.00;30.00;;;;;;6240711;28;81298;-66
2021/03/14 04:07:03;;;;;;;0.90;0.90;;;23.00;30.20;;;;;;6219466;28;81380;-67
2021/03/14 04:10:03;;;;;;;0.82;0.77;;;23.00;30.60;;;;;;6239643;28;94018;-67
2021/03/14 04:13:04;;;;;;;1.70;1.00;;;23.00;30.60;;;;;;6246130;27;80990;-67
2021/03/14 04:16:04;;;;;;;0.90;0.90;;;23.00;30.40;;;;;;6244175;28;80423;-66
2021/03/14 04:19:05;;;;;;;1.60;1.10;;;23.00;30.30;;;;;;6237145;28;80759;-66
2021/03/14 04:22:06;;;;;;;1.10;0.90;;;23.00;30.50;;;;;;6240367;28;80908;-66
2021/03/14 04:25:06;;;;;;;1.92;1.20;;;23.00;30.50;;;;;;6244908;28;81223;-66
2021/03/14 04:28:07;;;;;;;1.50;1.15;;;23.00;30.90;;;;;;6251178;28;80969;-67
2021/03/14 04:31:07;;;;;;;1.08;0.98;;;23.00;30.50;;;;;;6243180;27;80146;-66
2021/03/14 04:34:08;;;;;;;0.85;0.85;;;22.90;30.40;;;;;;6240590;28;80575;-66
2021/03/14 04:37:08;;;;;;;1.50;1.13;;;23.00;30.10;;;;;;6249919;28;89205;-66
2021/03/14 04:40:09;;;;;;;1.00;0.85;;;23.00;30.90;;;;;;6235354;28;80882;-66
2021/03/14 04:43:10;;;;;;;1.75;1.00;;;23.00;30.90;;;;;;6236426;28;81255;-67
2021/03/14 04:46:10;;;;;;;1.55;1.15;;;23.00;30.40;;;;;;6243139;27;81618;-67
2021/03/14 04:49:11;;;;;;;0.95;0.93;;;23.00;30.50;;;;;;6243523;28;81344;-66
2021/03/14 04:52:11;;;;;;;1.48;1.02;;;23.00;30.90;;;;;;6230733;28;80827;-67
2021/03/14 04:55:12;;;;;;;1.33;0.93;;;23.00;30.20;;;;;;6234944;28;80447;-67
2021/03/14 04:58:12;;;;;;;0.80;0.80;;;23.00;30.30;;;;;;6239610;28;80981;-68
2021/03/14 05:01:13;;;;;;;1.85;0.90;;;23.00;29.70;;;;;;6236741;28;80560;-67
2021/03/14 05:04:13;;;;;;;1.10;1.00;;;23.10;29.80;;;;;;6233337;28;88661;-66
2021/03/14 05:07:14;;;;;;;1.85;1.17;;;23.10;29.70;;;;;;6239257;28;80643;-66
2021/03/14 05:10:15;;;;;;;1.48;1.15;;;23.10;29.50;;;;;;6240509;28;80532;-66
2021/03/14 05:13:15;;;;;;;1.70;0.90;;;23.00;29.50;;;;;;6235877;28;81599;-66
2021/03/14 05:16:16;;;;;;;1.27;1.10;;;23.00;29.50;;;;;;6243236;27;80937;-65
2021/03/14 05:19:16;;;;;;;1.00;0.93;;;23.00;29.20;;;;;;6221904;28;83411;-66
2021/03/14 05:22:17;;;;;;;0.90;0.90;;;23.00;29.10;;;;;;6243934;28;81220;-66
2021/03/14 05:25:17;;;;;;;1.15;0.90;;;23.00;29.30;;;;;;6237663;28;83580;-66
2021/03/14 05:28:18;;;;;;;0.85;0.85;;;23.10;29.10;;;;;;6245373;28;80830;-65
2021/03/14 05:31:18;;;;;;;1.50;1.08;;;23.10;29.00;;;;;;6223903;28;81278;-66
2021/03/14 05:34:19;;;;;;;1.02;0.90;;;23.10;29.00;;;;;;6236570;28;80738;-67
2021/03/14 05:37:19;;;;;;;1.27;0.98;;;23.10;28.90;;;;;;6237485;28;80629;-67
2021/03/14 05:40:20;;;;;;;0.98;0.88;;;23.10;29.10;;;;;;6243046;28;80630;-65
2021/03/14 05:43:21;;;;;;;1.90;1.15;;;23.10;29.10;;;;;;6216176;28;81230;-68
2021/03/14 05:46:22;;;;;;;1.02;0.80;;;23.10;29.30;;;;;;6245641;27;81346;-67
2021/03/14 05:49:23;;;;;;;2.38;0.80;;;23.10;29.50;;;;;;6244743;28;81296;-67
2021/03/14 05:52:23;;;;;;;2.40;1.15;;;23.10;31.00;;;;;;6245410;28;80676;-67
2021/03/14 05:55:24;;;;;;;1.92;1.10;;;23.20;33.30;;;;;;6239252;28;81257;-67
2021/03/14 05:58:24;;;;;;;2.55;1.35;;;23.20;34.80;;;;;;6244255;28;81551;-66
2021/03/14 06:01:27;;;;;;;3.95;1.70;;;23.20;33.50;;;;;;6235936;28;80460;-67
2021/03/14 06:04:28;;;;;;;1.50;1.00;;;23.20;32.60;;;;;;6241856;28;81154;-67
2021/03/14 06:07:28;;;;;;;2.38;1.10;;;23.20;33.80;;;;;;6240290;27;80394;-66
2021/03/14 06:10:29;;;;;;;5.53;2.25;;;23.20;34.10;;;;;;6234612;28;80854;-67
2021/03/14 06:13:29;;;;;;;7.78;3.05;;;23.20;34.40;;;;;;6218501;28;81460;-67
2021/03/14 06:16:30;;;;;;;8.77;3.05;;;23.30;35.60;;;;;;6249031;27;81022;-67
2021/03/14 06:19:30;;;;;;;11.65;2.78;;;23.40;36.30;;;;;;6239858;28;81549;-65
2021/03/14 06:22:31;;;;;;;5.75;1.95;;;23.30;33.50;;;;;;6243501;28;81262;-66
2021/03/14 06:25:31;;;;;;;6.28;2.22;;;23.40;34.10;;;;;;6245225;28;80408;-67
2021/03/14 06:28:32;;;;;;;5.35;2.47;;;23.30;34.30;;;;;;6236483;28;81630;-67
2021/03/14 06:31:33;;;;;;;4.32;2.00;;;23.40;34.40;;;;;;6250636;28;80372;-65
2021/03/14 06:34:33;;;;;;;5.13;1.95;;;23.40;33.90;;;;;;6246443;28;80537;-66
2021/03/14 06:37:34;;;;;;;2.88;2.00;;;23.40;33.70;;;;;;6244558;28;80934;-65
2021/03/14 06:40:34;;;;;;;4.53;1.83;;;23.40;34.10;;;;;;6238871;28;81542;-66
2021/03/14 06:43:35;;;;;;;4.00;2.10;;;23.40;34.10;;;;;;6234039;28;81433;-67
2021/03/14 06:46:36;;;;;;;4.20;1.83;;;23.40;34.10;;;;;;6240483;28;80669;-66
2021/03/14 06:49:36;;;;;;;4.15;2.08;;;23.50;34.30;;;;;;6245376;27;85363;-65
2021/03/14 06:52:37;;;;;;;2.15;1.52;;;23.50;34.20;;;;;;6244866;27;81312;-66
2021/03/14 06:55:37;;;;;;;3.63;1.80;;;23.60;34.40;;;;;;6245728;27;80706;-66
2021/03/14 06:58:38;;;;;;;3.65;1.55;;;23.60;34.30;;;;;;6248288;27;80997;-66
2021/03/14 07:01:38;;;;;;;5.07;1.80;;;23.60;34.00;;;;;;6234501;28;81471;-66
2021/03/14 07:04:39;;;;;;;3.63;1.58;;;23.60;34.00;;;;;;6238620;28;81928;-65
2021/03/14 07:07:41;;;;;;;5.88;1.95;;;23.60;33.90;;;;;;6244350;28;81016;-66
2021/03/14 07:10:42;;;;;;;5.82;1.63;;;23.60;33.80;;;;;;6228644;28;82942;-65
2021/03/14 07:13:43;;;;;;;3.38;1.95;;;23.60;33.80;;;;;;6247097;28;80746;-66
2021/03/14 07:16:43;;;;;;;3.70;1.60;;;23.60;33.50;;;;;;6240906;28;80573;-62
2021/03/14 07:19:44;;;;;;;5.65;1.98;;;23.60;33.90;;;;;;6234734;28;83226;-65
2021/03/14 07:22:44;;;;;;;6.38;1.90;;;23.60;33.20;;;;;;6243868;27;80565;-66
2021/03/14 07:25:45;;;;;;;2.88;1.30;;;23.60;33.00;;;;;;6245008;28;80800;-65
2021/03/14 07:28:45;;;;;;;3.65;1.52;;;23.60;32.60;;;;;;6236621;28;80392;-66
2021/03/14 07:31:46;;;;;;;6.45;1.70;;;23.60;32.80;;;;;;6233767;28;81199;-66
2021/03/14 07:34:46;;;;;;;7.78;1.65;;;23.50;32.60;;;;;;6234199;27;81651;-64
2021/03/14 07:37:47;;;;;;;121.70;42.58;;;23.60;32.30;;;;;;6243554;27;82037;-65
2021/03/14 07:40:48;;;;;;;281.75;103.45;;;23.60;32.80;;;;;;6243076;27;83160;-66
2021/03/14 07:43:48;;;;;;;460.15;170.98;;;23.60;32.70;;;;;;6235238;27;85825;-64
2021/03/14 07:46:49;;;;;;;324.17;114.72;;;23.60;32.90;;;;;;6238072;27;90580;-65
2021/03/14 07:49:49;;;;;;;295.63;105.05;;;23.60;32.70;;;;;;6235914;28;86292;-70
2021/03/14 07:52:50;;;;;;;265.15;93.07;;;23.60;32.40;;;;;;6242506;28;86034;-67
2021/03/14 07:55:50;;;;;;;252.70;91.03;;;23.60;32.50;;;;;;6243087;28;86727;-67
2021/03/14 07:58:51;;;;;;;451.80;172.48;;;23.60;32.60;;;;;;6243774;28;83716;-68
2021/03/14 08:01:51;;;;;;;300.17;113.25;;;23.60;32.80;;;;;;6240782;28;85503;-69
2021/03/14 08:04:52;;;;;;;282.38;107.05;;;23.60;32.50;;;;;;6240423;27;86583;-70
2021/03/14 08:07:52;;;;;;;233.82;91.93;;;23.60;32.20;;;;;;6242554;27;86784;-70
2021/03/14 08:10:53;;;;;;;178.98;62.78;;;23.60;32.40;;;;;;6241272;27;85854;-68
2021/03/14 08:13:53;;;;;;;123.35;44.13;;;23.60;31.20;;;;;;6244058;28;83550;-69
2021/03/14 08:16:54;;;;;;;76.63;28.05;;;23.60;30.50;;;;;;6235536;28;83323;-68
2021/03/14 08:19:55;;;;;;;63.15;24.23;;;23.50;30.00;;;;;;6191259;28;83160;-67
2021/03/14 08:22:55;;;;;;;46.35;18.42;;;23.40;29.70;;;;;;6226753;28;85575;-70
2021/03/14 08:26:00;;;;;;;34.47;13.93;;;23.40;29.40;;;;;;6220902;28;85105;-67
2021/03/14 08:29:00;;;;;;;38.92;14.30;;;23.30;29.20;;;;;;6226383;27;83605;-67
2021/03/14 08:32:01;;;;;;;29.38;10.77;;;23.20;29.40;;;;;;6247021;27;84101;-66
2021/03/14 08:35:09;;;;;;;29.42;9.88;;;23.30;29.70;;;;;;6244243;27;83229;-66
2021/03/14 08:38:10;;;;;;;26.27;9.20;;;23.20;29.40;;;;;;6247758;28;82914;-68
2021/03/14 08:41:11;;;;;;;16.85;7.35;;;23.10;29.90;;;;;;6247696;28;80642;-66
2021/03/14 08:44:13;;;;;;;18.30;7.00;;;23.10;30.00;;;;;;6247717;27;82819;-67
2021/03/14 08:47:33;;;;;;;18.35;7.05;;;23.10;31.70;;;;;;6242705;28;82789;-67
2021/03/14 08:50:44;;;;;;;14.77;6.72;;;23.00;31.40;;;;;;6233420;28;85661;-66
2021/03/14 08:53:54;;;;;;;16.85;7.05;;;23.10;32.70;;;;;;6222960;28;82686;-67
2021/03/14 08:56:59;;;;;;;15.90;5.80;;;23.10;32.70;;;;;;6248192;28;81135;-66
2021/03/14 09:00:02;;;;;;;12.65;5.60;;;23.20;33.10;;;;;;6219285;28;80657;-65
2021/03/14 09:03:07;;;;;;;11.80;4.93;;;23.20;33.00;;;;;;6224723;28;81311;-66
2021/03/14 09:06:10;;;;;;;10.10;4.40;;;23.20;32.70;;;;;;6226527;28;83130;-66
2021/03/14 09:09:11;;;;;;;7.60;3.97;;;23.20;33.30;;;;;;6219480;28;83235;-69
2021/03/14 09:12:20;;;;;;;9.93;4.65;;;23.20;33.30;;;;;;6231419;28;83225;-66
2021/03/14 09:15:34;;;;;;;10.93;4.65;;;23.20;34.30;;;;;;6237578;27;80625;-67
2021/03/14 09:18:51;;;;;;;6.43;3.53;;;23.20;33.90;;;;;;6231724;28;83119;-63
2021/03/14 09:21:54;;;;;;;7.25;3.80;;;23.20;34.50;;;;;;6226669;28;82265;-66
2021/03/14 09:24:55;;;;;;;4.97;2.90;;;23.20;33.80;;;;;;6214241;28;82704;-66
2021/03/14 09:27:56;;;;;;;7.13;3.35;;;23.20;34.10;;;;;;6239945;28;84387;-67
2021/03/14 09:31:12;;;;;;;8.85;2.97;;;23.20;34.50;;;;;;6123278;28;87575;-68
2021/03/14 09:34:16;;;;;;;6.85;2.90;;;23.10;34.20;;;;;;6223997;28;83255;-67
2021/03/14 09:37:17;;;;;;;8.32;3.33;;;23.10;35.10;;;;;;6215739;28;81497;-67
2021/03/14 09:40:21;;;;;;;5.13;2.65;;;23.10;34.60;;;;;;6221105;28;82982;-65
2021/03/14 09:43:23;;;;;;;5.35;3.03;;;23.10;34.70;;;;;;6228811;28;83239;-66
2021/03/14 09:46:46;;;;;;;4.68;2.38;;;23.10;34.90;;;;;;6227121;27;80455;-66
2021/03/14 09:49:55;;;;;;;3.95;2.55;;;23.00;34.20;;;;;;6226792;28;82348;-68
2021/03/14 09:52:56;;;;;;;8.00;2.50;;;23.00;33.30;;;;;;6220702;28;81758;-66
2021/03/14 09:56:00;;;;;;;3.13;1.90;;;23.00;32.50;;;;;;6241469;28;81319;-66
2021/03/14 09:59:18;;;;;;;3.50;2.08;;;23.00;32.20;;;;;;6225927;28;81882;-66
2021/03/14 10:02:32;;;;;;;7.28;2.42;;;22.90;31.60;;;;;;6233695;28;82613;-67
2021/03/14 10:05:52;;;;;;;5.18;2.22;;;22.90;31.80;;;;;;6207753;28;82031;-65
2021/03/14 10:08:57;;;;;;;7.18;2.67;;;23.00;32.90;;;;;;6218294;28;82923;-67
2021/03/14 10:11:57;;;;;;;7.53;2.67;;;23.10;32.70;;;;;;6221401;28;83142;-69
2021/03/14 10:15:02;;;;;;;6.47;2.47;;;23.10;32.70;;;;;;6210938;28;82472;-68
2021/03/14 10:18:03;;;;;;;4.47;2.33;;;23.10;32.50;;;;;;6214423;28;82665;-64
2021/03/14 10:21:04;;;;;;;5.00;2.67;;;23.10;32.90;;;;;;6184365;28;82978;-63
2021/03/14 10:24:05;;;;;;;6.32;2.50;;;23.10;32.70;;;;;;6220179;28;82847;-64
2021/03/14 10:27:07;;;;;;;4.65;2.28;;;23.10;32.70;;;;;;6219868;28;83282;-66
2021/03/14 10:30:18;;;;;;;4.28;2.15;;;23.10;33.50;;;;;;6223713;28;82854;-64
2021/03/14 10:33:31;;;;;;;4.38;2.58;;;23.20;36.60;;;;;;6217549;28;82883;-63
2021/03/14 10:36:35;;;;;;;4.30;2.67;;;23.20;37.30;;;;;;6220418;28;82893;-66
2021/03/14 10:39:40;;;;;;;4.22;2.65;;;23.20;37.10;;;;;;6223812;28;82331;-67
2021/03/14 10:42:48;;;;;;;5.50;2.40;;;23.30;36.30;;;;;;6210709;28;83315;-66
2021/03/14 10:45:53;;;;;;;7.28;2.83;;;23.30;37.40;;;;;;6205923;28;82435;-65
2021/03/14 10:48:55;;;;;;;3.72;2.05;;;23.30;36.80;;;;;;6217369;28;81673;-67
2021/03/14 10:51:56;;;;;;;5.28;2.50;;;23.30;37.00;;;;;;6224822;28;83443;-66
2021/03/14 10:54:58;;;;;;;4.50;2.40;;;23.30;36.80;;;;;;6222738;28;82541;-66
2021/03/14 10:58:08;;;;;;;7.60;2.20;;;23.40;36.70;;;;;;6206957;28;83384;-65
2021/03/14 11:01:12;;;;;;;2.72;2.13;;;23.40;36.50;;;;;;6225377;28;81685;-66
2021/03/14 11:04:13;;;;;;;4.72;2.58;;;23.40;36.30;;;;;;6217053;28;88056;-67
2021/03/14 11:07:23;;;;;;;4.97;2.50;;;23.40;36.30;;;;;;6241021;27;80861;-65
2021/03/14 11:10:25;;;;;;;7.38;2.30;;;23.30;35.90;;;;;;6227043;28;82859;-67
2021/03/14 11:13:56;;;;;;;3.67;2.33;;;23.30;35.70;;;;;;6245256;28;82491;-64
2021/03/14 11:17:13;;;;;;;5.28;2.10;;;23.40;35.60;;;;;;6220612;28;82606;-65
2021/03/14 11:20:20;;;;;;;3.63;2.08;;;23.40;35.20;;;;;;6248760;28;83583;-66
2021/03/14 11:23:41;;;;;;;3.70;2.60;;;23.40;35.10;;;;;;6238179;28;81223;-65
2021/03/14 11:26:42;;;;;;;3.55;1.98;;;23.40;34.60;;;;;;6232242;28;81275;-66
2021/03/14 11:29:43;;;;;;;4.07;2.40;;;23.40;34.10;;;;;;6236459;28;83424;-65
2021/03/14 11:32:49;;;;;;;3.55;2.03;;;23.40;34.10;;;;;;6220094;28;81334;-66
2021/03/14 11:36:10;;;;;;;4.90;2.47;;;23.40;34.50;;;;;;6238937;28;83008;-65
2021/03/14 11:39:23;;;;;;;4.53;2.28;;;23.50;34.80;;;;;;6222859;28;82427;-64
2021/03/14 11:42:31;;;;;;;6.75;2.40;;;23.60;35.00;;;;;;6230560;27;83401;-66
2021/03/14 11:45:42;;;;;;;7.82;2.58;;;23.60;34.80;;;;;;6235482;27;81832;-64
2021/03/14 11:48:43;;;;;;;7.30;3.03;;;23.60;34.60;;;;;;6247288;27;83277;-66
2021/03/14 11:51:49;;;;;;;7.00;2.75;;;23.60;34.40;;;;;;6249809;28;82603;-64
2021/03/14 11:54:52;;;;;;;4.25;2.25;;;23.60;33.90;;;;;;6242257;28;84762;-68
2021/03/14 11:57:52;;;;;;;4.47;2.92;;;23.60;33.70;;;;;;6227772;28;81762;-66
2021/03/14 12:00:53;;;;;;;4.95;2.75;;;23.60;33.40;;;;;;6232152;28;83274;-66
2021/03/14 12:03:56;;;;;;;6.65;2.88;;;23.60;33.00;;;;;;6240672;28;83949;-65
2021/03/14 12:06:58;;;;;;;4.22;2.50;;;23.60;33.00;;;;;;6219641;28;82081;-64
2021/03/14 12:10:07;;;;;;;9.40;3.17;;;23.60;32.70;;;;;;6225380;28;82278;-65
2021/03/14 12:13:09;;;;;;;7.53;2.75;;;23.60;32.40;;;;;;6231756;28;82532;-68
2021/03/14 12:16:11;;;;;;;6.22;2.30;;;23.60;32.20;;;;;;6224592;28;82958;-68
2021/03/14 12:19:11;;;;;;;6.65;2.63;;;23.60;32.00;;;;;;6226855;27;82640;-69
2021/03/14 12:22:12;;;;;;;3.72;2.28;;;23.60;32.50;;;;;;6250109;28;81409;-71
2021/03/14 12:25:13;;;;;;;7.88;2.78;;;23.60;32.00;;;;;;6232892;28;83346;-66
2021/03/14 12:28:14;;;;;;;4.55;2.70;;;23.60;32.30;;;;;;6226590;28;83300;-66
2021/03/14 12:31:17;;;;;;;3.30;2.30;;;23.70;32.40;;;;;;6227370;28;81873;-65
2021/03/14 12:34:20;;;;;;;3.72;2.80;;;23.60;32.10;;;;;;6249638;28;81808;-69
2021/03/14 12:37:23;;;;;;;7.25;3.20;;;23.60;32.00;;;;;;6220168;28;83535;-69
2021/03/14 12:40:31;;;;;;;4.60;3.03;;;23.60;31.80;;;;;;6245462;28;85709;-67
2021/03/14 12:43:32;;;;;;;3.80;2.58;;;23.70;31.70;;;;;;6225270;28;83243;-66
2021/03/14 12:46:33;;;;;;;4.50;2.47;;;23.60;31.60;;;;;;6240974;27;81262;-68
2021/03/14 12:49:34;;;;;;;7.35;2.90;;;23.60;31.60;;;;;;6227085;28;83302;-67
2021/03/14 12:52:35;;;;;;;3.42;2.20;;;23.70;31.80;;;;;;6224319;27;82615;-66
2021/03/14 12:55:35;;;;;;;4.80;2.72;;;23.70;32.00;;;;;;6244665;27;81539;-67
2021/03/14 12:58:36;;;;;;;4.75;2.60;;;23.70;31.80;;;;;;6233633;27;81907;-67
2021/03/14 13:01:37;;;;;;;6.55;2.67;;;23.70;31.90;;;;;;6229682;28;83477;-65
2021/03/14 13:04:38;;;;;;;4.53;2.55;;;23.70;31.90;;;;;;6225075;27;81225;-67
2021/03/14 13:07:38;;;;;;;4.53;2.35;;;23.70;31.70;;;;;;6241046;27;83657;-65
2021/03/14 13:10:40;;;;;;;5.85;2.80;;;23.80;31.70;;;;;;6245625;27;80808;-67
2021/03/14 13:13:40;;;;;;;7.18;2.83;;;23.80;31.90;;;;;;6248797;27;80741;-68
2021/03/14 13:16:41;;;;;;;4.22;2.60;;;23.80;31.80;;;;;;6240514;27;80694;-66
2021/03/14 13:19:41;;;;;;;3.35;2.38;;;23.80;32.60;;;;;;6228459;28;83071;-65
2021/03/14 13:22:42;;;;;;;6.38;2.42;;;23.80;32.10;;;;;;6246191;27;80839;-65
2021/03/14 13:25:43;;;;;;;5.28;2.90;;;23.80;32.70;;;;;;6244062;27;80584;-64
2021/03/14 13:28:43;;;;;;;6.03;3.00;;;23.80;31.10;;;;;;6210218;28;81586;-68
2021/03/14 13:31:44;;;;;;;4.32;2.55;;;23.80;29.40;;;;;;6242133;27;81022;-66
2021/03/14 13:34:44;;;;;;;4.53;2.65;;;23.70;30.00;;;;;;6240431;27;81372;-66
2021/03/14 13:37:45;;;;;;;9.88;3.28;;;23.70;30.00;;;;;;6242539;27;80628;-65
2021/03/14 13:40:45;;;;;;;6.88;2.70;;;23.70;30.70;;;;;;6246299;27;81327;-66
2021/03/14 13:43:46;;;;;;;5.25;2.75;;;23.70;30.70;;;;;;6247228;27;81430;-65
2021/03/14 13:46:47;;;;;;;4.57;2.83;;;23.80;31.30;;;;;;6225878;28;82013;-63
2021/03/14 13:49:47;;;;;;;6.43;2.50;;;23.80;31.40;;;;;;6246353;27;80923;-63
2021/03/14 13:52:48;;;;;;;6.85;2.63;;;23.80;30.90;;;;;;6251291;27;80747;-63
2021/03/14 13:55:48;;;;;;;4.32;2.28;;;23.80;31.00;;;;;;6247650;27;81187;-63
2021/03/14 13:58:49;;;;;;;3.58;2.30;;;23.80;31.60;;;;;;6240956;27;80859;-63
2021/03/14 14:01:50;;;;;;;4.07;2.50;;;23.80;31.00;;;;;;6241120;27;80342;-63
2021/03/14 14:04:50;;;;;;;4.28;2.60;;;23.80;31.10;;;;;;6251511;27;81746;-62
2021/03/14 14:07:51;;;;;;;5.95;2.42;;;23.80;30.80;;;;;;6247725;27;80790;-61
2021/03/14 14:10:51;;;;;;;4.07;2.58;;;23.80;31.20;;;;;;6253067;27;80500;-63
2021/03/14 14:13:52;;;;;;;3.47;2.40;;;23.80;31.40;;;;;;6220806;27;81622;-62
2021/03/14 14:16:52;;;;;;;7.82;2.75;;;23.70;31.80;;;;;;6242375;27;81471;-66
2021/03/14 14:19:53;;;;;;;6.55;3.58;;;23.80;31.40;;;;;;6235059;27;81611;-67
2021/03/14 14:22:54;;;;;;;3.72;2.70;;;23.70;31.50;;;;;;6252714;27;80793;-66
2021/03/14 14:25:54;;;;;;;4.93;2.63;;;23.70;31.70;;;;;;6245469;27;80465;-66
2021/03/14 14:28:55;;;;;;;3.45;2.45;;;23.70;31.40;;;;;;6231124;27;83563;-66
2021/03/14 14:31:56;;;;;;;4.32;2.75;;;23.70;31.40;;;;;;6246143;27;80441;-67
2021/03/14 14:34:57;;;;;;;3.35;2.50;;;23.70;31.40;;;;;;6244226;27;80753;-66
2021/03/14 14:37:57;;;;;;;8.52;2.85;;;23.80;31.90;;;;;;6249669;27;80759;-68
2021/03/14 14:40:58;;;;;;;6.53;3.17;;;23.80;31.90;;;;;;6251264;27;80755;-67
2021/03/14 14:43:58;;;;;;;4.78;2.65;;;23.80;32.10;;;;;;6249792;27;81698;-67
2021/03/14 14:46:59;;;;;;;3.85;2.67;;;23.80;32.00;;;;;;6247748;27;81804;-67
2021/03/14 14:50:00;;;;;;;7.97;2.58;;;23.80;32.10;;;;;;6253811;27;80646;-67
2021/03/14 14:53:00;;;;;;;6.60;3.08;;;23.80;32.50;;;;;;6256744;27;80650;-67
2021/03/14 14:56:01;;;;;;;5.70;2.83;;;23.80;32.60;;;;;;6248958;27;80988;-67
2021/03/14 14:59:01;;;;;;;3.85;2.88;;;23.70;33.10;;;;;;6245076;27;81157;-67
2021/03/14 15:02:02;;;;;;;5.30;2.70;;;23.70;33.90;;;;;;6248954;27;81230;-67
2021/03/14 15:05:02;;;;;;;4.22;2.55;;;23.70;33.50;;;;;;6244812;27;82245;-67
2021/03/14 15:08:03;;;;;;;7.15;2.88;;;23.80;33.70;;;;;;6249225;27;80738;-67
2021/03/14 15:11:03;;;;;;;4.70;2.50;;;23.70;33.40;;;;;;6244827;27;80874;-67
2021/03/14 15:14:04;;;;;;;5.68;3.03;;;23.80;32.80;;;;;;6246070;27;80821;-69
2021/03/14 15:17:05;;;;;;;8.02;3.03;;;23.80;33.00;;;;;;6235005;27;80535;-69
2021/03/14 15:20:05;;;;;;;4.28;2.58;;;23.80;33.10;;;;;;6234497;28;80749;-68
2021/03/14 15:23:08;;;;;;;4.95;2.70;;;23.80;33.10;;;;;;6243012;28;81316;-67
2021/03/14 15:26:08;;;;;;;6.88;3.58;;;23.80;33.40;;;;;;6248104;28;87071;-65
2021/03/14 15:29:09;;;;;;;4.28;2.67;;;23.80;32.90;;;;;;6241257;28;80634;-65
2021/03/14 15:32:09;;;;;;;10.60;2.67;;;23.70;32.70;;;;;;6248098;28;80694;-67
2021/03/14 15:35:10;;;;;;;4.00;2.70;;;23.70;32.90;;;;;;6242034;28;80448;-67
2021/03/14 15:38:11;;;;;;;23.33;10.23;;;23.70;32.50;;;;;;6246906;28;80792;-68
2021/03/14 15:41:11;;;;;;;129.90;47.30;;;23.70;32.50;;;;;;6232991;28;82918;-67
2021/03/14 15:44:12;;;;;;;233.77;90.13;;;23.70;32.30;;;;;;6239041;27;85974;-73